Bookmark and Share
Track history (hours):
 

Westgard

Last reported at 2014-Apr-19 08:33 UTC. Time now 2014-Apr-23 12:33 UTC.
Position N 56°00' E 016°33'.

Length 89 m; draft 4.5 m.

Type: Ship. MMSI: 246457000.

NotesDate/timePositionNaut miles runAvg speedWind from/ knotsBaromVisibWave heightAir tempDewpointWater temp
2014-Apr-19 08:33N 56°00' E 016°33'1111.2
2014-Apr-19 07:33N 55°54' E 016°16'4110.2
2014-Apr-19 03:33N 55°34' E 015°13'1110.7
2014-Apr-19 02:33N 55°29' E 014°57'1110.8
2014-Apr-19 01:33N 55°24' E 014°40'1111.3
2014-Apr-19 00:33N 55°15' E 014°27'1010.4
2014-Apr-18 23:33N 55°11' E 014°10'1110.6
2014-Apr-18 22:33N 55°11' E 013°52'1210.7
2014-Apr-18 21:27N 55°13' E 013°31'1011.0
2014-Apr-18 20:33N 55°14' E 013°14'1111.2
2014-Apr-18 19:33N 55°15' E 012°55'1010.2
2014-Apr-18 18:33N 55°20' E 012°39'1111.2
2014-Apr-18 17:33N 55°31' E 012°42'1111.3
2014-Apr-18 16:33N 55°42' E 012°41'1111.2
2014-Apr-18 15:33N 55°53' E 012°39'1110.9
2014-Apr-18 14:33N 56°04' E 012°36'1211.8
2014-Apr-18 13:33N 56°13' E 012°23'1211.5
2014-Apr-18 12:32N 56°23' E 012°10'1411.5
2014-Apr-18 11:19N 56°35' E 011°57'911.9
2014-Apr-18 10:33N 56°44' E 011°54'3611.8
2014-Apr-18 07:33N 57°15' E 011°23'1212.3
2014-Apr-18 06:33N 57°25' E 011°11'1212.2
2014-Apr-18 05:32N 57°36' E 010°58'1211.9
2014-Apr-18 04:33N 57°45' E 010°46'1211.7
2014-Apr-18 03:33N 57°45' E 010°24'7211.9
2014-Apr-17 21:31N 57°08' E 008°29'1212.3
2014-Apr-17 20:33N 56°58' E 008°16'1212.2
2014-Apr-17 19:33N 56°48' E 008°03'1212.0
2014-Apr-17 18:33N 56°39' E 007°51'1212.0
2014-Apr-17 17:33N 56°28' E 007°39'1211.8
2014-Apr-17 16:33N 56°19' E 007°27'1111.6
2014-Apr-17 15:33N 56°09' E 007°16'1211.6
2014-Apr-17 14:33N 55°59' E 007°05'1211.5
2014-Apr-17 13:32N 55°49' E 006°53'1111.5
2014-Apr-17 12:33N 55°40' E 006°43'1211.4
2014-Apr-17 11:30N 55°29' E 006°32'8611.9
2014-Apr-17 04:18N 54°17' E 005°12'911.6
2014-Apr-17 03:31N 54°10' E 005°03'1111.5
2014-Apr-17 02:32N 53°59' E 004°56'1211.9
2014-Apr-17 01:30N 53°47' E 004°53'1111.8
2014-Apr-17 00:33N 53°36' E 004°49'1111.3
2014-Apr-16 23:33N 53°26' E 004°41'1111.2
2014-Apr-16 22:33N 53°15' E 004°34'1111.1
2014-Apr-16 21:33N 53°05' E 004°26'1111.4
2014-Apr-16 20:33N 52°55' E 004°17'1111.4
2014-Apr-16 19:33N 52°46' E 004°06'1211.9
2014-Apr-16 18:33N 52°37' E 003°54'1312.4
2014-Apr-16 17:33N 52°28' E 003°39'6713.3
2014-Apr-16 12:32N 51°38' E 002°27'1212.5
2014-Apr-16 11:33N 51°29' E 002°15'1411.4
2014-Apr-16 10:20N 51°16' E 002°05'10 9.8
2014-Apr-16 09:21N 51°09' E 001°54'7 8.9
2014-Apr-16 08:33N 51°05' E 001°45'47 9.3
2014-Apr-16 03:33N 50°31' E 000°54'1010.4
2014-Apr-16 02:33N 50°28' E 000°38'7011.7
2014-Apr-15 20:33N 50°17' W 001°10'  
2014-Apr-12 14:22N 47°14' W 003°36'  
2014-Apr-10 09:09N 46°09' W 001°37'610.1
2014-Apr-10 08:34N 46°13' W 001°44'1010.3
2014-Apr-10 07:34N 46°19' W 001°56'1010.0
2014-Apr-10 06:34N 46°25' W 002°07'1610.8
2014-Apr-10 05:05N 46°34' W 002°26'810.8
2014-Apr-10 04:19N 46°39' W 002°35'  

Dump ship's entire track history

sailing weather and tide predictions

Westgard — PDBQ — position and weather